Terminal Aerodrome Forecast
Issued by NWS Sterling, VA

Current Version | Previous Version | Graphics & Text | Print | Product List | Glossary On
Versions: 1 2 3 4 5 6 7 8 9 10 11 12 13 14 15
640
FTUS41 KLWX 271130
TAFMRB
TAF
KMRB 271130Z 2712/2812 00000KT P6SM FEW060
     FM271800 19005KT P6SM -SHRA VCTS BKN050CB
     FM280000 19004KT P6SM BKN080
     FM280500 VRB03KT P6SM FEW080 SCT250=

USA.gov is the U.S. government's official web portal to all federal, state and local government web resources and services.